This is the latest recevied weather packets stored in our database for station/object KR4BRU. If no packets are shown the sender has not sent any weather packets the latest 10 day(s).
| Time | Temp. | Humidity | Pressure | Rain* | Wind** | Luminosity | Snow |
|---|---|---|---|---|---|---|---|
| 1777826416 | 19.44° C | 30% | 1018.1 hPa | 0 mm | - | 882 W/m² | - |
| 1777825816 | 19.44° C | 32% | 1018 hPa | 0 mm | - | 951 W/m² | - |
| 1777825211 | 20° C | 33% | 1018.4 hPa | 0 mm | - | 939 W/m² | - |
| 1777824610 | 18.33° C | 36% | 1018.5 hPa | 0 mm | - | 923 W/m² | - |
| 1777824009 | 18.33° C | 37% | 1018.3 hPa | 0 mm | - | 903 W/m² | - |
| 1777823408 | 18.33° C | 34% | 1018.4 hPa | 0 mm | - | 880 W/m² | - |
| 1777822803 | 18.33° C | 35% | 1018.6 hPa | 0 mm | - | 854 W/m² | - |
| 1777822198 | 18.89° C | 34% | 1018.7 hPa | 0 mm | - | 833 W/m² | - |
| 1777821593 | 16.67° C | 39% | 1018.8 hPa | 0 mm | - | 802 W/m² | - |
| 1777820988 | 18.89° C | 38% | 1018.6 hPa | 0 mm | - | 770 W/m² | - |
| 1777820386 | 17.78° C | 40% | 1018.7 hPa | 0 mm | - | 743 W/m² | - |
| 1777819781 | 17.22° C | 42% | 1018.6 hPa | 0 mm | - | 708 W/m² | - |
| 1777819177 | 17.22° C | 42% | 1018.5 hPa | 0 mm | - | 674 W/m² | - |
| 1777818575 | 16.67° C | 46% | 1018.7 hPa | 0 mm | - | 636 W/m² | - |
| 1777817974 | 16.67° C | 47% | 1018.8 hPa | 0 mm | - | 595 W/m² | - |
| 1777817369 | 16.11° C | 47% | 1018.8 hPa | 0 mm | - | 557 W/m² | - |
| 1777816767 | 16.11° C | 48% | 1018.7 hPa | 0 mm | - | 520 W/m² | - |
| 1777816163 | 15.56° C | 48% | 1018.6 hPa | 0 mm | - | 482 W/m² | - |
| 1777815564 | 15° C | 50% | 1018.6 hPa | 0 mm | - | 443 W/m² | - |
| 1777814962 | 15° C | 52% | 1018.6 hPa | 0 mm | - | 388 W/m² | - |
| 1777814361 | 15° C | 55% | 1018.6 hPa | 0 mm | - | 296 W/m² | - |
| 1777813761 | 13.89° C | 60% | 1018.5 hPa | 0 mm | - | 294 W/m² | - |
| 1777813161 | 12.22° C | 65% | 1018.5 hPa | 0 mm | - | 209 W/m² | - |
| 1777812561 | 11.11° C | 70% | 1018.1 hPa | 0 mm | - | 62 W/m² | - |
| 1777811957 | 10.56° C | 71% | 1018.4 hPa | 0 mm | - | 48 W/m² | - |
* Rain latest hour (hover to see other rain measurements)
** Current wind speed in m/s (hover to see current wind gust speed)